createdAt,value
2023-05-20T00:00:27.113Z,14.37
2023-05-20T00:02:54.527Z,14.33
2023-05-20T00:05:21.542Z,14.30
2023-05-20T00:07:48.741Z,14.28
2023-05-20T00:10:16.001Z,14.26
2023-05-20T00:12:43.110Z,14.21
2023-05-20T00:15:12.368Z,14.18
2023-05-20T00:17:39.805Z,14.14
2023-05-20T00:20:08.334Z,14.10
2023-05-20T00:22:35.692Z,14.05
2023-05-20T00:25:03.042Z,14.01
2023-05-20T00:27:30.286Z,13.98
2023-05-20T00:29:57.970Z,13.93
2023-05-20T00:32:25.941Z,13.89
2023-05-20T00:34:59.793Z,13.86
2023-05-20T00:37:29.583Z,13.78
2023-05-20T00:39:58.379Z,13.75
2023-05-20T00:42:27.317Z,13.73
2023-05-20T00:44:56.017Z,13.69
2023-05-20T00:47:33.050Z,13.64
2023-05-20T00:50:01.422Z,13.58
2023-05-20T00:52:33.001Z,13.55
2023-05-20T00:55:00.635Z,13.53
2023-05-20T00:57:28.192Z,13.48
2023-05-20T00:59:56.065Z,13.47
2023-05-20T01:02:25.625Z,13.45
2023-05-20T01:04:55.467Z,13.43
2023-05-20T01:07:23.002Z,13.42
2023-05-20T01:09:52.907Z,13.39
2023-05-20T01:12:30.149Z,13.38
2023-05-20T01:15:16.110Z,13.39
2023-05-20T01:17:58.465Z,13.34
2023-05-20T01:20:26.725Z,13.32
2023-05-20T01:22:57.134Z,13.31
2023-05-20T01:25:25.388Z,13.26
2023-05-20T01:27:54.585Z,13.26
2023-05-20T01:30:28.470Z,13.23
2023-05-20T01:33:00.343Z,13.21
2023-05-20T01:35:33.172Z,13.16
2023-05-20T01:38:01.110Z,13.11
2023-05-20T01:40:29.429Z,13.05
2023-05-20T01:42:58.655Z,13.00
2023-05-20T01:45:26.858Z,12.94
2023-05-20T01:47:54.889Z,12.91
2023-05-20T01:50:22.576Z,12.86
2023-05-20T01:52:50.329Z,12.85
2023-05-20T01:55:17.695Z,12.82
2023-05-20T01:57:44.909Z,12.78
2023-05-20T02:00:12.845Z,12.77
2023-05-20T02:02:45.159Z,12.73
2023-05-20T02:05:13.590Z,12.67
2023-05-20T02:07:43.570Z,12.65
2023-05-20T02:10:11.768Z,12.66
2023-05-20T02:12:39.117Z,12.65
2023-05-20T02:15:07.675Z,12.64
2023-05-20T02:17:36.266Z,12.63
2023-05-20T02:20:06.591Z,12.63
2023-05-20T02:22:35.151Z,12.65
2023-05-20T02:25:04.071Z,12.67
2023-05-20T02:27:31.699Z,12.71
2023-05-20T02:30:01.126Z,12.76
2023-05-20T02:32:29.305Z,12.86
2023-05-20T02:34:56.930Z,13.02
2023-05-20T02:37:24.762Z,13.17
2023-05-20T02:39:52.536Z,13.36
2023-05-20T02:42:19.760Z,13.59
2023-05-20T02:44:47.104Z,13.84
2023-05-20T02:47:14.876Z,14.10
2023-05-20T02:49:42.342Z,14.41
2023-05-20T02:52:10.602Z,14.69
2023-05-20T02:54:38.981Z,14.99
2023-05-20T02:57:06.560Z,15.31
2023-05-20T02:59:33.851Z,15.65
2023-05-20T03:02:01.340Z,16.02
2023-05-20T03:04:29.458Z,16.39
2023-05-20T03:06:58.202Z,16.78
2023-05-20T03:09:25.734Z,17.21
2023-05-20T03:11:56.077Z,17.64
2023-05-20T03:14:24.129Z,17.97
2023-05-20T03:16:51.513Z,18.28
2023-05-20T03:19:19.741Z,18.62
2023-05-20T03:21:47.040Z,18.99
2023-05-20T03:24:15.010Z,19.29
2023-05-20T03:26:46.734Z,19.55
2023-05-20T03:29:14.122Z,19.48
2023-05-20T03:31:41.986Z,19.22
2023-05-20T03:34:09.055Z,19.06
2023-05-20T03:36:36.760Z,18.84
2023-05-20T03:39:05.005Z,18.70
2023-05-20T03:41:34.342Z,18.62
2023-05-20T03:44:05.366Z,18.65
2023-05-20T03:46:34.765Z,18.50
2023-05-20T03:49:03.284Z,18.50
2023-05-20T03:51:31.846Z,18.55
2023-05-20T03:54:05.640Z,18.59
2023-05-20T03:56:33.165Z,18.67
2023-05-20T03:59:01.020Z,18.78
2023-05-20T04:01:28.653Z,18.89
2023-05-20T04:03:56.618Z,19.09
2023-05-20T04:06:24.498Z,19.29
2023-05-20T04:08:53.184Z,19.39
2023-05-20T04:11:21.913Z,19.54
2023-05-20T04:13:49.204Z,19.79
2023-05-20T04:16:17.494Z,19.99
2023-05-20T04:18:46.525Z,20.28
2023-05-20T04:21:14.404Z,20.49
2023-05-20T04:23:41.925Z,20.72
2023-05-20T04:26:09.431Z,20.97
2023-05-20T04:28:38.193Z,21.23
2023-05-20T04:31:06.426Z,21.37
2023-05-20T04:33:39.113Z,21.53
2023-05-20T04:36:10.434Z,21.85
2023-05-20T04:38:38.265Z,21.95
2023-05-20T04:41:07.394Z,22.08
2023-05-20T04:43:35.029Z,22.19
2023-05-20T04:46:06.457Z,22.30
2023-05-20T04:48:35.350Z,22.58
2023-05-20T04:51:03.693Z,22.68
2023-05-20T04:53:34.243Z,22.67
2023-05-20T04:56:02.127Z,22.94
2023-05-20T04:58:32.077Z,23.08
2023-05-20T05:01:00.067Z,23.06
2023-05-20T05:03:29.102Z,23.16
2023-05-20T05:06:01.530Z,23.14
2023-05-20T05:08:29.137Z,23.02
2023-05-20T05:10:56.418Z,22.85
2023-05-20T05:13:23.852Z,22.83
2023-05-20T05:16:01.958Z,22.69
2023-05-20T05:18:31.292Z,22.92
2023-05-20T05:21:06.779Z,22.87
2023-05-20T05:23:36.307Z,22.74
2023-05-20T05:26:03.733Z,22.60
2023-05-20T05:28:31.403Z,22.71
2023-05-20T05:30:59.537Z,22.54
2023-05-20T05:33:27.246Z,22.47
2023-05-20T05:35:59.479Z,22.36
2023-05-20T05:38:27.600Z,22.42
2023-05-20T05:40:55.588Z,22.33
2023-05-20T05:43:23.448Z,22.30
2023-05-20T05:45:51.705Z,22.35
2023-05-20T05:48:19.173Z,22.29
2023-05-20T05:50:47.360Z,22.32
2023-05-20T05:53:17.062Z,22.35
2023-05-20T05:55:48.106Z,22.44
2023-05-20T05:58:16.657Z,22.48
2023-05-20T06:00:43.983Z,22.53
2023-05-20T06:03:11.893Z,22.57
2023-05-20T06:05:40.244Z,22.61
2023-05-20T06:08:08.504Z,22.77
2023-05-20T06:10:37.386Z,23.01
2023-05-20T06:13:05.249Z,23.07
2023-05-20T06:15:33.783Z,22.95
2023-05-20T06:18:03.266Z,23.04
2023-05-20T06:20:32.214Z,23.12
2023-05-20T06:23:01.260Z,23.14
2023-05-20T06:25:37.792Z,23.13
2023-05-20T06:28:05.417Z,23.01
2023-05-20T06:30:33.444Z,23.11
2023-05-20T06:33:01.766Z,23.60
2023-05-20T06:35:29.467Z,23.82
2023-05-20T06:37:57.158Z,23.92
2023-05-20T06:40:24.746Z,24.18
2023-05-20T06:42:52.477Z,24.17
2023-05-20T06:45:28.208Z,24.56
2023-05-20T06:47:57.738Z,24.72
2023-05-20T06:50:28.485Z,24.99
2023-05-20T06:52:56.409Z,25.39
2023-05-20T06:55:24.094Z,25.20
2023-05-20T06:57:51.863Z,25.19
2023-05-20T07:00:20.412Z,25.14
2023-05-20T07:02:47.890Z,25.35
2023-05-20T07:05:15.743Z,25.43
2023-05-20T07:07:43.140Z,25.49
2023-05-20T07:10:10.716Z,25.79
2023-05-20T07:12:38.181Z,25.66
2023-05-20T07:15:06.426Z,25.94
2023-05-20T07:17:34.994Z,26.09
2023-05-20T07:20:03.088Z,25.95
2023-05-20T07:34:02.770Z,26.82
2023-05-20T07:36:30.710Z,26.64
2023-05-20T07:39:04.368Z,26.45
2023-05-20T07:41:35.903Z,26.45
2023-05-20T07:44:05.350Z,26.39
2023-05-20T07:46:35.021Z,26.34
2023-05-20T07:49:03.765Z,26.62
2023-05-20T07:51:31.997Z,27.10
2023-05-20T07:53:59.554Z,27.55
2023-05-20T07:56:27.544Z,27.55
2023-05-20T07:58:58.441Z,27.46
2023-05-20T08:01:29.229Z,27.77
2023-05-20T08:03:56.805Z,27.94
2023-05-20T08:06:27.950Z,27.71
2023-05-20T08:08:57.025Z,27.70
2023-05-20T08:11:29.780Z,27.55
2023-05-20T08:13:57.696Z,27.50
2023-05-20T08:16:27.446Z,27.40
2023-05-20T08:18:55.300Z,27.52
2023-05-20T08:21:23.054Z,27.83
2023-05-20T08:23:51.157Z,28.13
2023-05-20T08:26:18.779Z,28.17
2023-05-20T08:28:47.080Z,28.37
2023-05-20T08:31:18.315Z,28.58
2023-05-20T08:33:46.041Z,28.84
2023-05-20T08:36:13.301Z,28.81
2023-05-20T08:38:40.420Z,28.86
2023-05-20T08:41:07.995Z,29.14
2023-05-20T08:43:38.223Z,29.09
2023-05-20T08:46:07.211Z,29.10
2023-05-20T08:48:36.485Z,29.11
2023-05-20T08:51:05.169Z,29.11
2023-05-20T08:53:32.614Z,28.94
2023-05-20T08:56:03.710Z,28.91
2023-05-20T08:58:33.049Z,28.97
2023-05-20T09:01:00.710Z,29.07
2023-05-20T09:03:29.093Z,29.21
2023-05-20T09:06:06.220Z,29.28
2023-05-20T09:08:34.636Z,29.37
2023-05-20T09:11:02.176Z,29.46
2023-05-20T09:13:33.133Z,29.47
2023-05-20T09:16:04.721Z,29.67
2023-05-20T09:18:32.553Z,30.27
2023-05-20T09:21:07.424Z,30.74
2023-05-20T09:23:38.601Z,30.66
2023-05-20T09:26:06.739Z,30.94
2023-05-20T09:28:36.717Z,30.99
2023-05-20T09:31:07.087Z,31.23
2023-05-20T09:33:37.634Z,31.08
2023-05-20T09:36:08.303Z,30.86
2023-05-20T09:38:40.068Z,31.04
2023-05-20T09:41:16.092Z,31.53
2023-05-20T09:43:45.870Z,31.66
2023-05-20T09:46:14.519Z,31.58
2023-05-20T09:48:41.983Z,31.62
2023-05-20T09:51:10.344Z,31.96
2023-05-20T09:53:38.007Z,32.24
2023-05-20T09:56:06.201Z,32.53
2023-05-20T09:58:36.385Z,32.74
2023-05-20T10:01:04.238Z,33.07
2023-05-20T10:03:33.694Z,32.97
2023-05-20T10:06:10.598Z,33.17
2023-05-20T10:08:47.264Z,33.77
2023-05-20T10:11:40.778Z,34.54
2023-05-20T10:14:49.748Z,34.12
2023-05-20T10:17:29.081Z,33.52
2023-05-20T10:20:03.956Z,33.50
2023-05-20T10:22:33.664Z,33.54
2023-05-20T10:25:09.184Z,33.54
2023-05-20T10:27:49.160Z,33.72
2023-05-20T10:30:18.307Z,33.71
2023-05-20T10:32:57.810Z,33.66
2023-05-20T10:35:26.795Z,33.78
2023-05-20T10:37:55.437Z,33.62
2023-05-20T10:40:23.587Z,33.24
2023-05-20T10:42:50.983Z,33.13
2023-05-20T10:45:29.076Z,33.39
2023-05-20T10:47:57.960Z,33.44
2023-05-20T10:50:36.554Z,33.28
2023-05-20T10:53:18.465Z,33.42
2023-05-20T10:55:57.979Z,33.89
2023-05-20T10:58:25.907Z,34.51
2023-05-20T11:00:56.432Z,34.92
2023-05-20T11:03:25.619Z,34.86
2023-05-20T11:05:53.104Z,34.41
2023-05-20T11:08:29.067Z,33.92
2023-05-20T11:10:58.523Z,33.85
2023-05-20T11:13:27.381Z,33.61
2023-05-20T11:15:56.177Z,33.69
2023-05-20T11:18:23.991Z,33.54
2023-05-20T11:20:51.528Z,33.46
2023-05-20T11:23:19.663Z,33.45
2023-05-20T11:25:47.607Z,33.50
2023-05-20T11:28:18.012Z,33.78
2023-05-20T11:30:46.006Z,34.06
2023-05-20T11:33:14.606Z,33.94
2023-05-20T11:35:46.376Z,33.84
2023-05-20T11:38:14.157Z,33.84
2023-05-20T11:40:53.068Z,33.97
2023-05-20T11:43:21.727Z,33.71
2023-05-20T11:45:54.734Z,33.92
2023-05-20T11:48:22.326Z,33.27
2023-05-20T11:50:49.894Z,32.90
2023-05-20T11:53:19.722Z,32.92
2023-05-20T11:55:53.300Z,32.82
2023-05-20T11:58:31.319Z,32.56
2023-05-20T12:01:09.580Z,31.99
2023-05-20T12:03:42.787Z,31.74
2023-05-20T12:06:13.752Z,31.80
2023-05-20T12:08:41.630Z,32.21
2023-05-20T12:11:09.209Z,32.34
2023-05-20T12:13:36.975Z,32.31
2023-05-20T12:16:06.201Z,32.21
2023-05-20T12:18:34.198Z,32.45
2023-05-20T12:21:02.030Z,32.65
2023-05-20T12:23:31.299Z,32.45
2023-05-20T12:25:58.477Z,32.41
2023-05-20T12:28:26.121Z,32.65
2023-05-20T12:30:53.372Z,32.43
2023-05-20T12:33:21.081Z,32.36
2023-05-20T12:35:48.931Z,32.42
2023-05-20T12:38:16.626Z,32.30
2023-05-20T12:40:44.573Z,32.20
2023-05-20T12:43:11.816Z,32.23
2023-05-20T12:45:39.701Z,32.12
2023-05-20T12:48:10.180Z,32.02
2023-05-20T12:50:37.861Z,31.87
2023-05-20T12:53:05.752Z,31.62
2023-05-20T12:55:33.324Z,31.30
2023-05-20T12:58:00.852Z,31.07
2023-05-20T13:00:28.622Z,31.00
2023-05-20T13:02:56.157Z,31.21
2023-05-20T13:05:23.496Z,30.97
2023-05-20T13:07:51.081Z,31.20
2023-05-20T13:10:20.026Z,31.11
2023-05-20T13:12:47.997Z,31.05
2023-05-20T13:15:15.937Z,31.00
2023-05-20T13:17:43.561Z,30.69
2023-05-20T13:20:12.180Z,30.53
2023-05-20T13:22:39.814Z,30.21
2023-05-20T13:25:08.508Z,30.27
2023-05-20T13:27:40.325Z,30.44
2023-05-20T13:30:08.797Z,30.28
2023-05-20T13:32:36.794Z,30.18
2023-05-20T13:35:04.743Z,30.31
2023-05-20T13:37:32.089Z,30.28
2023-05-20T13:39:59.672Z,30.06
2023-05-20T13:42:27.549Z,29.91
2023-05-20T13:44:54.903Z,29.80
2023-05-20T13:47:25.174Z,29.41
2023-05-20T13:49:53.165Z,29.02
2023-05-20T13:52:21.253Z,28.69
2023-05-20T13:54:49.022Z,28.48
2023-05-20T13:57:18.004Z,28.26
2023-05-20T13:59:45.554Z,28.05
2023-05-20T14:02:13.041Z,27.77
2023-05-20T14:04:41.500Z,27.69
2023-05-20T14:07:09.953Z,27.51
2023-05-20T14:09:38.248Z,27.47
2023-05-20T14:12:06.589Z,27.23
2023-05-20T14:14:34.027Z,27.04
2023-05-20T14:17:01.328Z,27.01
2023-05-20T14:19:29.369Z,26.93
2023-05-20T14:21:56.785Z,26.89
2023-05-20T14:24:24.276Z,26.78
2023-05-20T14:26:51.793Z,26.73
2023-05-20T14:29:19.424Z,26.74
2023-05-20T14:31:47.104Z,26.62
2023-05-20T14:34:14.422Z,26.56
2023-05-20T14:36:41.959Z,26.52
2023-05-20T14:39:10.161Z,26.34
2023-05-20T14:41:37.642Z,26.11
2023-05-20T14:44:05.240Z,25.96
2023-05-20T14:46:33.043Z,25.77
2023-05-20T14:49:00.663Z,25.53
2023-05-20T14:51:27.870Z,25.36
2023-05-20T14:53:55.040Z,25.23
2023-05-20T14:56:23.593Z,24.98
2023-05-20T14:58:51.214Z,24.65
2023-05-20T15:01:18.650Z,24.64
2023-05-20T15:03:46.483Z,24.55
2023-05-20T15:06:14.155Z,24.43
2023-05-20T15:08:42.231Z,24.25
2023-05-20T15:11:09.830Z,24.04
2023-05-20T15:13:40.206Z,23.84
2023-05-20T15:16:08.331Z,23.75
2023-05-20T15:18:35.856Z,23.65
2023-05-20T15:21:03.512Z,23.60
2023-05-20T15:23:31.171Z,23.49
2023-05-20T15:25:58.819Z,23.19
2023-05-20T15:28:26.647Z,23.13
2023-05-20T15:30:57.071Z,23.07
2023-05-20T15:33:24.767Z,22.88
2023-05-20T15:35:52.762Z,22.75
2023-05-20T15:38:20.202Z,22.65
2023-05-20T15:40:50.595Z,22.55
2023-05-20T15:43:18.875Z,22.43
2023-05-20T15:45:50.080Z,22.36
2023-05-20T15:48:17.857Z,22.31
2023-05-20T15:50:45.348Z,22.20
2023-05-20T15:53:16.228Z,22.15
2023-05-20T15:55:44.872Z,22.06
2023-05-20T15:58:12.508Z,21.99
2023-05-20T16:00:40.226Z,21.78
2023-05-20T16:03:08.702Z,21.79
2023-05-20T16:05:36.806Z,21.77
2023-05-20T16:08:04.408Z,21.66
2023-05-20T16:10:35.196Z,21.58
2023-05-20T16:13:03.341Z,21.58
2023-05-20T16:15:36.172Z,21.49
2023-05-20T16:18:04.224Z,21.44
2023-05-20T16:20:31.903Z,21.42
2023-05-20T16:22:59.565Z,21.31
2023-05-20T16:25:26.894Z,21.26
2023-05-20T16:27:54.267Z,21.22
2023-05-20T16:30:21.884Z,21.10
2023-05-20T16:32:49.641Z,21.09
2023-05-20T16:35:17.168Z,21.05
2023-05-20T16:37:44.942Z,21.00
2023-05-20T16:40:13.071Z,20.94
2023-05-20T16:42:40.684Z,20.80
2023-05-20T16:45:08.652Z,20.74
2023-05-20T16:47:37.125Z,20.62
2023-05-20T16:50:04.990Z,20.55
2023-05-20T16:52:35.578Z,20.39
2023-05-20T16:55:05.033Z,20.37
2023-05-20T16:57:32.959Z,20.30
2023-05-20T17:00:00.711Z,20.24
2023-05-20T17:02:28.157Z,20.16
2023-05-20T17:04:55.744Z,20.14
2023-05-20T17:07:23.226Z,20.02
2023-05-20T17:09:50.646Z,19.93
2023-05-20T17:12:20.132Z,19.77
2023-05-20T17:14:47.574Z,19.69
2023-05-20T17:17:15.235Z,19.56
2023-05-20T17:19:42.897Z,19.38
2023-05-20T17:22:10.428Z,19.29
2023-05-20T17:24:37.740Z,19.14
2023-05-20T17:27:06.256Z,18.99
2023-05-20T17:29:33.874Z,18.90
2023-05-20T17:32:01.598Z,18.82
2023-05-20T17:34:30.086Z,18.66
2023-05-20T17:36:57.806Z,18.52
2023-05-20T17:39:25.576Z,18.40
2023-05-20T17:41:53.013Z,18.32
2023-05-20T17:44:20.527Z,18.14
2023-05-20T17:46:48.913Z,18.00
2023-05-20T17:49:17.046Z,17.86
2023-05-20T17:51:44.506Z,17.75
2023-05-20T17:54:12.112Z,17.67
2023-05-20T17:56:39.645Z,17.57
2023-05-20T17:59:07.124Z,17.49
2023-05-20T18:01:36.404Z,17.36
2023-05-20T18:04:06.388Z,17.28
2023-05-20T18:06:36.409Z,17.20
2023-05-20T18:09:05.150Z,17.09
2023-05-20T18:11:34.052Z,16.96
2023-05-20T18:14:02.861Z,16.87
2023-05-20T18:16:30.974Z,16.75
2023-05-20T18:18:58.713Z,16.64
2023-05-20T18:21:26.653Z,16.53
2023-05-20T18:23:54.311Z,16.41
2023-05-20T18:26:21.873Z,16.28
2023-05-20T18:28:50.235Z,16.15
2023-05-20T18:31:17.680Z,16.03
2023-05-20T18:33:45.088Z,15.91
2023-05-20T18:36:12.723Z,15.79
2023-05-20T18:38:41.751Z,15.66
2023-05-20T18:41:10.438Z,15.56
2023-05-20T18:43:38.099Z,15.47
2023-05-20T18:46:06.851Z,15.41
2023-05-20T18:48:34.481Z,15.37
2023-05-20T18:51:01.846Z,15.30
2023-05-20T18:53:29.279Z,15.22
2023-05-20T18:56:01.849Z,15.15
2023-05-20T18:58:30.372Z,15.07
2023-05-20T19:00:57.733Z,15.04
2023-05-20T19:03:26.701Z,15.04
2023-05-20T19:05:54.108Z,15.02
2023-05-20T19:08:23.258Z,15.04
2023-05-20T19:10:51.250Z,15.05
2023-05-20T19:13:21.828Z,15.11
2023-05-20T19:15:49.456Z,15.10
2023-05-20T19:18:17.031Z,15.15
2023-05-20T19:20:44.361Z,15.13
2023-05-20T19:23:12.066Z,15.10
2023-05-20T19:25:39.789Z,15.07
2023-05-20T19:28:07.034Z,15.04
2023-05-20T19:30:35.105Z,15.02
2023-05-20T19:33:05.499Z,14.95
2023-05-20T19:35:34.997Z,14.88
2023-05-20T19:38:05.131Z,14.78
2023-05-20T19:40:33.652Z,14.73
2023-05-20T19:43:04.550Z,14.66
2023-05-20T19:45:32.402Z,14.60
2023-05-20T19:47:59.936Z,14.55
2023-05-20T19:50:28.041Z,14.49
2023-05-20T19:52:55.435Z,14.46
2023-05-20T19:55:23.070Z,14.42
2023-05-20T19:57:53.985Z,14.40
2023-05-20T20:00:21.994Z,14.32
2023-05-20T20:02:50.558Z,14.29
2023-05-20T20:05:18.630Z,14.20
2023-05-20T20:07:48.388Z,14.11
2023-05-20T20:10:16.045Z,14.03
2023-05-20T20:12:43.631Z,13.91
2023-05-20T20:15:11.598Z,13.83
2023-05-20T20:17:46.000Z,13.72
2023-05-20T20:20:14.501Z,13.64
2023-05-20T20:22:42.811Z,13.57
2023-05-20T20:25:14.130Z,13.48
2023-05-20T20:27:44.771Z,13.44
2023-05-20T20:30:14.172Z,13.40
2023-05-20T20:32:42.121Z,13.40
2023-05-20T20:35:11.389Z,13.39
2023-05-20T20:37:39.573Z,13.33
2023-05-20T20:40:13.725Z,13.32
2023-05-20T20:42:45.410Z,13.32
2023-05-20T20:45:12.847Z,13.34
2023-05-20T20:47:41.471Z,13.35
2023-05-20T20:50:09.686Z,13.38
2023-05-20T20:52:38.785Z,13.37
2023-05-20T20:55:07.357Z,13.35
2023-05-20T20:57:35.528Z,13.32
2023-05-20T21:00:14.381Z,13.34
2023-05-20T21:02:42.226Z,13.30
2023-05-20T21:05:09.907Z,13.26
2023-05-20T21:07:42.878Z,13.23
2023-05-20T21:10:10.710Z,13.12
2023-05-20T21:12:38.202Z,13.08
2023-05-20T21:15:06.384Z,13.05
2023-05-20T21:17:33.744Z,13.05
2023-05-20T21:20:01.234Z,13.06
2023-05-20T21:22:28.706Z,13.08
2023-05-20T21:24:56.162Z,13.10
2023-05-20T21:27:23.708Z,13.14
2023-05-20T21:29:51.458Z,13.20
2023-05-20T21:32:19.112Z,13.22
2023-05-20T21:34:47.045Z,13.22
2023-05-20T21:37:14.383Z,13.21
2023-05-20T21:39:42.464Z,13.19
2023-05-20T21:42:10.057Z,13.16
2023-05-20T21:44:37.726Z,13.11
2023-05-20T21:47:05.051Z,13.10
2023-05-20T21:49:33.253Z,13.11
2023-05-20T21:52:00.623Z,13.09
2023-05-20T21:54:27.617Z,13.08
2023-05-20T21:56:54.834Z,13.08
2023-05-20T21:59:22.422Z,13.06
2023-05-20T22:01:51.169Z,13.03
2023-05-20T22:04:19.880Z,13.06
2023-05-20T22:06:47.409Z,13.08
2023-05-20T22:09:14.979Z,13.05
2023-05-20T22:11:45.759Z,13.04
2023-05-20T22:14:16.332Z,13.08
2023-05-20T22:16:48.766Z,13.12
2023-05-20T22:19:16.928Z,13.14
2023-05-20T22:24:15.274Z,13.06
2023-05-20T22:26:42.735Z,13.08
2023-05-20T22:29:09.959Z,13.06
2023-05-20T22:31:38.159Z,13.02
2023-05-20T22:34:05.740Z,12.93
2023-05-20T22:36:36.668Z,12.90
2023-05-20T22:39:04.951Z,12.87
2023-05-20T22:41:32.448Z,12.86
2023-05-20T22:43:59.784Z,12.80
2023-05-20T22:46:27.147Z,12.81
2023-05-20T22:48:55.632Z,12.80
2023-05-20T22:51:24.750Z,12.81
2023-05-20T22:53:52.304Z,12.73
2023-05-20T22:56:20.173Z,12.70
2023-05-20T22:58:47.568Z,12.70
2023-05-20T23:01:16.983Z,12.68
2023-05-20T23:03:51.830Z,12.68
2023-05-20T23:06:19.610Z,12.67
2023-05-20T23:08:47.184Z,12.67
2023-05-20T23:11:14.472Z,12.62
2023-05-20T23:13:42.031Z,12.62
2023-05-20T23:16:09.673Z,12.61
2023-05-20T23:18:37.259Z,12.56
2023-05-20T23:21:04.732Z,12.53
2023-05-20T23:23:32.340Z,12.49
2023-05-20T23:26:00.361Z,12.39
2023-05-20T23:28:28.129Z,12.30
2023-05-20T23:30:55.333Z,12.31
2023-05-20T23:33:25.761Z,12.32
2023-05-20T23:35:53.504Z,12.26
2023-05-20T23:38:21.351Z,12.23
2023-05-20T23:40:49.735Z,12.14
2023-05-20T23:43:17.305Z,12.12
2023-05-20T23:45:44.498Z,12.08
2023-05-20T23:48:13.775Z,12.05
2023-05-20T23:50:41.198Z,12.08
2023-05-20T23:53:08.511Z,11.98
2023-05-20T23:55:36.149Z,11.90
2023-05-20T23:58:04.522Z,11.85
